2022年9月29日 13:002022年9月30日 01:00有效
时间
星期四
13:00
星期四
14:00
星期四
15:00
星期四
16:00
星期四
17:00
星期四
18:00
星期四
19:00
星期四
20:00
星期四
21:00
星期四
22:00
星期四
23:00
星期五
00:00
代码
VFR
VFR
VFR
VFR
VFR
VFR
VFR
VFR
VFR
VFR
VFR
VFR
天气
天空晴朗
天空晴朗
天空晴朗
天空晴朗
天空晴朗
天空晴朗
天空晴朗
天空晴朗
天空晴朗
天空晴朗
天空晴朗
天空晴朗
能见度
6 mi+
6 mi+
6 mi+
6 mi+
6 mi+
6 mi+
6 mi+
6 mi+
6 mi+
6 mi+
6 mi+
6 mi+
天花板
-
-
-
-
-
-
-
-
-
-
-
-
170°
170°
170°
170°
170°
170°
170°
170°
170°
170°
170°
170°
120°
120°
120°
120°
120°
120°
120°
120°
120°
120°
120°
120°
速度
8 kt
8 kt
8 kt
8 kt
8 kt
8 kt
8 kt
8 kt
5 kt
5 kt
5 kt
5 kt
阵风
温度/星期日
19:16

原版的

TAF CYPG 291740Z 2918/3006 17008KT P6SM SKC
BECMG 3000/3002 12005KT RMK NXT FCST BY 300000Z

TAF Homewood Airport

Homewood Airport是Homewood,加拿大中的小机场。 该机场有一条跑道: 8/26. 该领域的国际民航组织标志是CJT8.

这份报告是针对2022年9月29日 12:40, 当地时间在Portage-la-Prairie / Southport Airport进行的。 从2022年9月29日 13:00到2022年9月30日 01:00, 当地时间有效.

预报

  • 在星期四 13:00和星期五 01:00之间

    • 风: 风来自170°方向,速度为8 kt。
    • 能见度: 6 mi 或者更多
    • 乌云: 没有云.

  • 介于星期四 19:00和21:00之间

    • 风: 风来自120°方向,速度为5 kt。

白天

今天,太阳从07:30升起,在19:12降落。 这适用于Homewood Airport,世界夏令时可能有所不同。 当地时间与世界标准时间之间的时差为-5 小时。 夏令时目前正在进行中。

我们和第三方通过cookies跟踪您在我们网站上的上网行为。如果您继续,我们认为您同意我们的cookie政策。 了解更多